Aeroporto :
LOGIN :

Iscrizione | Disclaimer

   EN    FR    IT 

 










Sommario :    VFR   VFR Marginale   IFR   IFR Intensivo   IFR Molto Intensivo
Visibilità : 
Base nubi : 
>= 8 km
>= 3000ft
5 / 8 km
1000 / 3000 ft
1500m / 5 km
500 / 1000 ft
800 / 1500m
200 / 500 ft
< 800m
< 200 ft
Simboli :   Temporali  Nebbia  Neve Forte  Precipitazioni Forti  Vento > 20 kt
SIGMETs :   Varie  Temporali  Ghiacco  Turbolenza  Onda orograficha  Ceneri Vulcaniche






- Altitudine del aeroporto : 479 ft
- Codice IATA : DOL


LFRG - Deauville

ULTIMO METAR :
  • 212300Z AUTO 02005KT 350V050 CAVOK 05/02 Q1028

METARs OBSOLETI :
  • 212230Z AUTO 02006KT 350V050 CAVOK 06/02 Q1028
  • 212200Z AUTO 03007KT 340V060 CAVOK 06/02 Q1028
  • 212130Z AUTO 03007KT 360V060 CAVOK 06/02 Q1028
  • 212100Z AUTO 03006KT 360V080 CAVOK 06/02 Q1028
  • 212030Z AUTO 02007KT CAVOK 06/02 Q1028
  • 212000Z AUTO 02010KT 350V050 CAVOK 07/02 Q1028 NOSIG
  • 211930Z AUTO 03009KT 360V060 CAVOK 07/02 Q1027 NOSIG
  • 211900Z AUTO 02010KT 350V080 CAVOK 07/02 Q1027 NOSIG
  • 211830Z AUTO 03012KT 360V060 9999 FEW026 08/03 Q1027 NOSIG

TAF TAF LFRG
Valido dal 21 a 15 ore il 22 a 00 ore UTC


211400Z 2115/2124 02015G25KT 9999 BKN030
PROB40
TEMPO 2115/2116 4000 SHRA BKN020TCU
BECMG 2119/2121 02010KT
PROB40
TEMPO 2122/2124 4000 SHRA BKN020TCU
ATIS : +33 2 31 65 65 36



MetMap, La meteo Aeronautica in un colpo d'occhio ! - Copyright ORBIFLY Dicembre 2007 - Disclaimer

ORBIFLY MET'MAP TEAM :

Programmazione e sviluppo : Alexandra Zaïnal
Concezione : Baudouin d'Aumeries
Supporto tecnico e logistico : Manuel Goepfert
Aiuto : Marc-Olivier Méhu
Aiuto per la traduzione : Arnaldo La Scala




FONTI E CREDITI :

   NOAA